createdAt,value
2018-07-26T00:01:15.828Z,17.27
2018-07-26T00:03:54.531Z,15.53
2018-07-26T00:06:32.556Z,18.23
2018-07-26T00:14:10.047Z,16.37
2018-07-26T00:16:47.909Z,16.70
2018-07-26T00:19:26.950Z,14.47
2018-07-26T00:22:05.664Z,15.23
2018-07-26T00:24:43.508Z,16.87
2018-07-26T00:27:21.615Z,15.70
2018-07-26T00:29:59.921Z,16.10
2018-07-26T00:32:37.392Z,16.17
2018-07-26T00:35:15.106Z,17.87
2018-07-26T00:37:51.960Z,14.83
2018-07-26T00:40:29.673Z,15.57
2018-07-26T00:43:08.071Z,15.77
2018-07-26T00:45:45.868Z,13.90
2018-07-26T00:48:24.871Z,17.13
2018-07-26T00:51:02.713Z,14.67
2018-07-26T00:53:41.932Z,15.50
2018-07-26T00:56:20.259Z,15.80
2018-07-26T00:58:58.784Z,17.50
2018-07-26T01:01:36.851Z,16.00
2018-07-26T01:04:15.271Z,16.27
2018-07-26T01:06:53.993Z,17.73
2018-07-26T01:09:31.906Z,16.23
2018-07-26T01:12:09.193Z,15.93
2018-07-26T01:14:47.461Z,16.23
2018-07-26T01:17:25.291Z,16.53
2018-07-26T01:20:03.224Z,17.03
2018-07-26T01:22:41.274Z,16.37
2018-07-26T01:25:18.946Z,18.20
2018-07-26T01:27:57.082Z,21.00
2018-07-26T01:30:35.757Z,21.90
2018-07-26T01:33:13.893Z,24.03
2018-07-26T01:35:51.467Z,23.23
2018-07-26T01:38:29.921Z,18.43
2018-07-26T01:41:08.073Z,17.13
2018-07-26T01:43:53.890Z,17.70
2018-07-26T01:46:31.945Z,17.27
2018-07-26T01:49:09.904Z,15.93
2018-07-26T01:51:48.015Z,16.93
2018-07-26T01:54:26.787Z,15.90
2018-07-26T01:57:04.232Z,15.93
2018-07-26T01:59:41.778Z,16.93
2018-07-26T02:02:21.148Z,16.13
2018-07-26T02:05:00.448Z,16.53
2018-07-26T02:07:38.141Z,17.60
2018-07-26T02:10:16.230Z,15.00
2018-07-26T02:12:54.636Z,16.73
2018-07-26T02:15:33.422Z,17.03
2018-07-26T02:18:11.053Z,16.90
2018-07-26T02:20:49.832Z,17.37
2018-07-26T02:23:28.374Z,18.73
2018-07-26T02:26:06.378Z,19.20
2018-07-26T02:28:43.686Z,19.83
2018-07-26T02:31:21.506Z,18.50
2018-07-26T02:33:59.676Z,19.23
2018-07-26T02:36:37.465Z,19.73
2018-07-26T02:39:15.104Z,22.67
2018-07-26T02:41:52.873Z,22.40
2018-07-26T02:44:30.683Z,21.87
2018-07-26T02:47:08.496Z,22.90
2018-07-26T02:49:47.120Z,23.37
2018-07-26T02:52:25.224Z,20.53
2018-07-26T02:55:03.825Z,21.87
2018-07-26T02:57:41.846Z,21.57
2018-07-26T03:00:19.769Z,21.97
2018-07-26T03:02:57.888Z,20.83
2018-07-26T03:05:36.546Z,19.60
2018-07-26T03:08:14.361Z,18.27
2018-07-26T03:10:52.795Z,18.40
2018-07-26T03:13:30.796Z,17.03
2018-07-26T03:16:08.551Z,19.17
2018-07-26T03:18:45.671Z,19.83
2018-07-26T03:21:22.172Z,19.87
2018-07-26T03:23:59.345Z,18.80
2018-07-26T03:26:37.352Z,19.43
2018-07-26T03:29:15.432Z,20.53
2018-07-26T03:31:53.418Z,21.50
2018-07-26T03:34:32.566Z,21.07
2018-07-26T03:37:11.282Z,22.20
2018-07-26T03:39:49.668Z,22.73
2018-07-26T03:42:27.368Z,23.53
2018-07-26T03:45:04.300Z,26.20
2018-07-26T03:50:38.892Z,24.77
2018-07-26T03:53:25.361Z,26.13
2018-07-26T03:56:02.648Z,27.23
2018-07-26T03:58:45.202Z,26.77
2018-07-26T04:01:23.297Z,27.33
2018-07-26T04:03:59.126Z,31.90
2018-07-26T04:06:34.882Z,31.77
2018-07-26T04:09:16.654Z,25.63
2018-07-26T04:11:52.764Z,25.80
2018-07-26T04:14:28.257Z,25.00
2018-07-26T04:17:04.598Z,25.63
2018-07-26T04:19:40.749Z,24.33
2018-07-26T04:22:17.343Z,22.20
2018-07-26T04:24:53.327Z,21.50
2018-07-26T04:27:29.124Z,22.40
2018-07-26T04:30:05.390Z,22.60
2018-07-26T04:32:42.956Z,22.70
2018-07-26T04:35:18.745Z,22.97
2018-07-26T04:37:55.098Z,18.73
2018-07-26T04:40:31.714Z,16.90
2018-07-26T04:43:20.000Z,17.63
2018-07-26T04:46:05.592Z,16.73
2018-07-26T04:48:43.032Z,17.47
2018-07-26T04:54:06.178Z,15.30
2018-07-26T04:56:42.553Z,16.10
2018-07-26T04:59:18.801Z,13.90
2018-07-26T05:01:55.973Z,13.53
2018-07-26T05:04:33.265Z,13.40
2018-07-26T05:07:09.367Z,11.83
2018-07-26T05:09:45.462Z,13.13
2018-07-26T05:12:22.218Z,14.50
2018-07-26T05:14:57.992Z,14.43
2018-07-26T05:17:34.968Z,14.03
2018-07-26T05:20:12.560Z,13.47
2018-07-26T05:22:48.866Z,12.10
2018-07-26T05:25:25.678Z,11.50
2018-07-26T05:28:02.411Z,11.73
2018-07-26T05:30:38.783Z,12.30
2018-07-26T05:33:14.630Z,12.57
2018-07-26T05:35:50.676Z,12.93
2018-07-26T05:38:27.304Z,12.70
2018-07-26T05:41:03.788Z,12.83
2018-07-26T05:43:39.736Z,13.07
2018-07-26T05:46:15.340Z,13.93
2018-07-26T05:48:52.078Z,14.43
2018-07-26T05:51:28.811Z,14.47
2018-07-26T05:54:04.587Z,14.73
2018-07-26T05:56:41.628Z,14.73
2018-07-26T05:59:18.079Z,17.53
2018-07-26T06:01:55.245Z,15.50
2018-07-26T06:04:34.284Z,15.10
2018-07-26T06:07:11.016Z,16.40
2018-07-26T06:09:46.868Z,13.87
2018-07-26T06:12:23.171Z,13.73
2018-07-26T06:14:59.706Z,14.33
2018-07-26T06:17:35.731Z,15.73
2018-07-26T06:20:15.226Z,16.93
2018-07-26T06:22:52.225Z,17.13
2018-07-26T06:25:28.598Z,16.67
2018-07-26T06:28:04.945Z,16.40
2018-07-26T06:30:42.207Z,15.30
2018-07-26T06:33:19.125Z,15.67
2018-07-26T06:35:56.781Z,14.37
2018-07-26T06:38:33.861Z,14.57
2018-07-26T06:41:11.342Z,15.43
2018-07-26T06:43:48.580Z,14.80
2018-07-26T06:46:24.329Z,17.57
2018-07-26T06:49:00.015Z,15.23
2018-07-26T06:51:39.065Z,14.07
2018-07-26T06:54:16.254Z,14.50
2018-07-26T06:56:52.216Z,17.60
2018-07-26T06:59:28.374Z,15.23
2018-07-26T07:02:05.650Z,15.00
2018-07-26T07:04:43.013Z,14.43
2018-07-26T07:07:19.164Z,14.10
2018-07-26T07:09:57.738Z,15.03
2018-07-26T07:12:37.297Z,13.33
2018-07-26T07:15:13.394Z,15.97
2018-07-26T07:17:49.975Z,17.07
2018-07-26T07:20:26.655Z,16.13
2018-07-26T07:23:17.765Z,18.67
2018-07-26T07:25:54.452Z,16.67
2018-07-26T07:28:31.178Z,16.50
2018-07-26T07:31:07.902Z,16.80
2018-07-26T07:33:45.304Z,15.77
2018-07-26T07:36:37.494Z,15.80
2018-07-26T07:41:58.011Z,15.43
2018-07-26T07:44:41.685Z,18.73
2018-07-26T07:47:19.788Z,15.03
2018-07-26T07:50:15.331Z,15.43
2018-07-26T07:52:51.465Z,12.97
2018-07-26T07:55:27.765Z,11.37
2018-07-26T07:58:04.499Z,11.63
2018-07-26T08:03:23.830Z,10.37
2018-07-26T08:05:59.914Z,11.80
2018-07-26T08:08:35.875Z,15.17
2018-07-26T08:11:12.684Z,10.07
2018-07-26T08:13:49.493Z,10.47
2018-07-26T08:16:25.517Z,9.57
2018-07-26T08:19:17.408Z,10.30
2018-07-26T08:21:55.412Z,11.20
2018-07-26T08:24:44.795Z,11.90
2018-07-26T08:27:21.060Z,11.57
2018-07-26T08:29:56.703Z,11.27
2018-07-26T08:32:32.615Z,12.50
2018-07-26T08:35:08.370Z,12.40
2018-07-26T08:38:14.270Z,13.20
2018-07-26T08:40:55.634Z,13.20
2018-07-26T08:43:55.242Z,12.90
2018-07-26T08:46:31.351Z,13.67
2018-07-26T08:49:21.340Z,13.53
2018-07-26T08:51:57.464Z,13.57
2018-07-26T08:54:33.463Z,14.27
2018-07-26T08:57:09.141Z,14.27
2018-07-26T08:59:50.255Z,14.00
2018-07-26T09:02:30.706Z,14.93
2018-07-26T09:05:25.783Z,15.43
2018-07-26T09:08:15.427Z,14.57
2018-07-26T09:10:51.969Z,14.50
2018-07-26T09:13:28.210Z,15.43
2018-07-26T09:16:06.304Z,20.00
2018-07-26T09:18:52.351Z,15.73
2018-07-26T09:21:28.922Z,23.70
2018-07-26T09:27:15.959Z,19.07
2018-07-26T09:29:52.399Z,17.87
2018-07-26T09:32:33.996Z,17.90
2018-07-26T09:35:11.796Z,19.10
2018-07-26T09:38:13.738Z,17.97
2018-07-26T09:40:54.039Z,23.33
2018-07-26T09:43:33.325Z,18.40
2018-07-26T09:46:09.157Z,17.77
2018-07-26T09:48:45.322Z,18.37
2018-07-26T09:51:32.183Z,19.67
2018-07-26T09:54:13.846Z,21.73
2018-07-26T09:57:13.297Z,17.10
2018-07-26T10:05:41.375Z,18.07
2018-07-26T10:08:17.179Z,19.70
2018-07-26T10:10:53.146Z,19.30
2018-07-26T10:13:32.048Z,21.93
2018-07-26T10:16:07.917Z,20.93
2018-07-26T10:18:43.824Z,19.27
2018-07-26T10:21:20.167Z,19.03
2018-07-26T10:23:56.083Z,19.83
2018-07-26T10:26:35.319Z,20.30
2018-07-26T10:29:11.114Z,19.90
2018-07-26T10:32:03.439Z,21.73
2018-07-26T10:37:34.345Z,21.93
2018-07-26T10:40:10.330Z,22.20
2018-07-26T10:42:46.213Z,22.43
2018-07-26T10:45:21.860Z,24.20
2018-07-26T10:47:57.552Z,22.53
2018-07-26T10:50:34.000Z,24.10
2018-07-26T10:53:10.165Z,23.17
2018-07-26T10:55:46.256Z,23.27
2018-07-26T10:58:27.400Z,22.60
2018-07-26T11:01:04.144Z,22.80
2018-07-26T11:03:40.344Z,23.40
2018-07-26T11:06:16.706Z,24.37
2018-07-26T11:08:53.221Z,22.67
2018-07-26T11:11:29.310Z,22.97
2018-07-26T11:14:05.380Z,23.20
2018-07-26T11:16:41.962Z,24.07
2018-07-26T11:19:18.227Z,23.33
2018-07-26T11:21:55.304Z,23.47
2018-07-26T11:24:32.412Z,24.13
2018-07-26T11:27:08.793Z,24.57
2018-07-26T11:29:45.516Z,25.10
2018-07-26T11:32:21.995Z,25.87
2018-07-26T11:34:58.983Z,24.90
2018-07-26T11:37:36.507Z,26.40
2018-07-26T11:40:14.339Z,26.00
2018-07-26T11:42:50.660Z,25.10
2018-07-26T11:45:27.102Z,24.33
2018-07-26T11:48:03.215Z,25.63
2018-07-26T11:50:39.185Z,24.70
2018-07-26T11:53:15.493Z,25.23
2018-07-26T11:55:52.136Z,25.43
2018-07-26T11:58:28.328Z,26.63
2018-07-26T12:01:04.357Z,26.07
2018-07-26T12:03:42.181Z,25.87
2018-07-26T12:06:18.502Z,25.13
2018-07-26T12:08:56.424Z,25.20
2018-07-26T12:11:33.908Z,26.73
2018-07-26T12:14:10.020Z,27.20
2018-07-26T12:16:47.195Z,26.63
2018-07-26T12:19:23.503Z,25.50
2018-07-26T12:21:59.968Z,26.03
2018-07-26T12:24:37.112Z,26.27
2018-07-26T12:27:13.981Z,30.33
2018-07-26T12:29:50.412Z,27.23
2018-07-26T12:32:27.641Z,27.73
2018-07-26T12:35:04.786Z,28.17
2018-07-26T12:37:41.511Z,27.93
2018-07-26T12:40:19.336Z,27.67
2018-07-26T12:42:57.142Z,28.17
2018-07-26T12:45:34.598Z,31.10
2018-07-26T12:48:11.994Z,29.47
2018-07-26T12:50:48.511Z,28.67
2018-07-26T12:53:25.301Z,28.17
2018-07-26T12:56:04.663Z,27.43
2018-07-26T12:58:44.571Z,28.63
2018-07-26T13:01:21.510Z,27.33
2018-07-26T13:03:58.896Z,27.67
2018-07-26T13:06:39.510Z,26.27
2018-07-26T13:09:16.575Z,25.83
2018-07-26T13:11:53.133Z,27.10
2018-07-26T13:14:32.415Z,27.07
2018-07-26T13:17:09.935Z,27.80
2018-07-26T13:19:46.863Z,27.40
2018-07-26T13:22:23.709Z,27.53
2018-07-26T13:25:00.946Z,28.50
2018-07-26T13:27:37.670Z,29.33
2018-07-26T13:30:14.323Z,29.87
2018-07-26T13:32:50.828Z,33.53
2018-07-26T13:35:27.293Z,33.83
2018-07-26T13:38:03.912Z,35.20
2018-07-26T13:40:40.743Z,33.87
2018-07-26T13:43:17.030Z,35.87
2018-07-26T13:45:53.300Z,38.80
2018-07-26T13:48:30.569Z,41.17
2018-07-26T13:51:07.474Z,39.83
2018-07-26T13:53:43.588Z,39.43
2018-07-26T13:56:23.590Z,39.27
2018-07-26T13:59:02.031Z,38.80
2018-07-26T14:01:43.465Z,41.10
2018-07-26T14:04:24.508Z,39.63
2018-07-26T14:07:01.171Z,38.10
2018-07-26T14:09:40.330Z,35.87
2018-07-26T14:12:16.810Z,36.67
2018-07-26T14:14:54.174Z,38.10
2018-07-26T14:17:30.937Z,35.37
2018-07-26T14:20:07.320Z,35.17
2018-07-26T14:22:44.925Z,36.00
2018-07-26T14:25:21.352Z,36.63
2018-07-26T14:27:59.062Z,35.17
2018-07-26T14:30:36.414Z,36.33
2018-07-26T14:33:13.690Z,36.57
2018-07-26T14:35:50.185Z,38.83
2018-07-26T14:38:27.021Z,37.70
2018-07-26T14:41:03.899Z,39.30
2018-07-26T14:43:40.945Z,35.83
2018-07-26T14:46:19.287Z,37.90
2018-07-26T14:48:55.431Z,38.47
2018-07-26T14:51:32.777Z,40.70
2018-07-26T14:54:09.226Z,41.17
2018-07-26T14:56:46.343Z,36.93
2018-07-26T14:59:23.343Z,37.07
2018-07-26T15:02:00.790Z,36.07
2018-07-26T15:04:38.297Z,38.83
2018-07-26T15:07:18.149Z,38.30
2018-07-26T15:09:55.576Z,40.33
2018-07-26T15:12:40.156Z,38.80
2018-07-26T15:15:20.199Z,38.73
2018-07-26T15:17:58.833Z,41.43
2018-07-26T15:20:37.295Z,38.87
2018-07-26T15:23:14.903Z,41.60
2018-07-26T15:25:51.757Z,38.57
2018-07-26T15:28:34.021Z,44.87
2018-07-26T15:31:16.587Z,45.13
2018-07-26T15:33:49.229Z,46.70
2018-07-26T15:36:28.403Z,42.33
2018-07-26T15:39:05.379Z,43.60
2018-07-26T15:41:48.850Z,46.70
2018-07-26T15:44:32.078Z,42.60
2018-07-26T15:47:11.868Z,42.40
2018-07-26T15:49:50.425Z,44.00
2018-07-26T15:52:28.873Z,42.67
2018-07-26T15:55:06.772Z,41.77
2018-07-26T15:57:43.492Z,43.00
2018-07-26T16:16:12.575Z,43.23
2018-07-26T16:18:49.073Z,42.93
2018-07-26T16:21:25.826Z,41.97
2018-07-26T16:24:02.176Z,47.83
2018-07-26T16:26:40.728Z,50.13
2018-07-26T16:29:17.168Z,46.40
2018-07-26T16:31:53.152Z,40.57
2018-07-26T16:34:29.772Z,46.13
2018-07-26T16:37:05.982Z,43.20
2018-07-26T16:39:42.577Z,44.80
2018-07-26T16:42:20.250Z,44.37
2018-07-26T16:44:56.889Z,40.93
2018-07-26T16:47:34.175Z,44.27
2018-07-26T16:50:24.516Z,43.97
2018-07-26T16:53:02.051Z,40.93
2018-07-26T16:55:38.635Z,39.43
2018-07-26T16:58:19.483Z,39.20
2018-07-26T17:00:59.472Z,40.53
2018-07-26T17:03:39.103Z,38.63
2018-07-26T17:06:16.094Z,43.97
2018-07-26T17:08:53.931Z,39.43
2018-07-26T17:11:31.975Z,37.67
2018-07-26T17:14:08.566Z,43.37
2018-07-26T17:16:46.489Z,38.77
2018-07-26T17:19:25.212Z,43.73
2018-07-26T17:22:03.742Z,39.83
2018-07-26T17:24:51.434Z,42.97
2018-07-26T17:27:29.585Z,40.50
2018-07-26T17:30:08.436Z,38.13
2018-07-26T17:32:44.808Z,39.90
2018-07-26T17:35:23.780Z,37.77
2018-07-26T17:38:13.538Z,38.80
2018-07-26T17:41:22.458Z,36.63
2018-07-26T17:44:06.149Z,37.80
2018-07-26T17:47:08.707Z,35.03
2018-07-26T17:49:46.268Z,37.77
2018-07-26T17:52:23.582Z,38.50
2018-07-26T17:55:00.147Z,34.47
2018-07-26T17:57:37.423Z,35.37
2018-07-26T18:00:15.582Z,35.53
2018-07-26T18:02:51.696Z,36.40
2018-07-26T18:05:27.589Z,33.50
2018-07-26T18:08:04.071Z,33.77
2018-07-26T18:10:40.697Z,33.77
2018-07-26T18:13:17.889Z,34.13
2018-07-26T18:15:54.812Z,33.73
2018-07-26T18:18:32.062Z,32.53
2018-07-26T18:21:08.745Z,32.80
2018-07-26T18:23:45.946Z,33.43
2018-07-26T18:26:22.176Z,31.83
2018-07-26T18:28:58.661Z,35.33
2018-07-26T18:31:35.189Z,32.27
2018-07-26T18:34:11.537Z,31.37
2018-07-26T18:36:47.979Z,31.30
2018-07-26T18:39:25.223Z,32.50
2018-07-26T18:42:02.172Z,29.93
2018-07-26T18:44:39.114Z,30.77
2018-07-26T18:47:16.753Z,31.50
2018-07-26T18:49:54.624Z,30.43
2018-07-26T18:52:32.419Z,30.77
2018-07-26T18:55:10.292Z,33.13
2018-07-26T18:57:47.937Z,32.87
2018-07-26T19:00:24.455Z,33.67
2018-07-26T19:03:01.863Z,31.43
2018-07-26T19:05:39.025Z,30.43
2018-07-26T19:08:16.423Z,29.20
2018-07-26T19:10:54.166Z,31.50
2018-07-26T19:13:31.620Z,30.03
2018-07-26T19:16:08.510Z,29.77
2018-07-26T19:18:45.358Z,30.43
2018-07-26T19:21:22.322Z,29.77
2018-07-26T19:24:00.084Z,29.07
2018-07-26T19:26:37.892Z,27.23
2018-07-26T19:29:15.200Z,30.10
2018-07-26T19:31:53.042Z,28.80
2018-07-26T19:34:30.860Z,29.10
2018-07-26T19:37:08.409Z,29.90
2018-07-26T19:39:46.705Z,27.57
2018-07-26T19:42:24.753Z,30.57
2018-07-26T19:45:01.850Z,28.63
2018-07-26T19:47:39.625Z,28.73
2018-07-26T19:50:17.269Z,28.73
2018-07-26T19:52:54.539Z,28.87
2018-07-26T19:55:31.994Z,28.93
2018-07-26T19:58:09.769Z,28.13
2018-07-26T20:00:45.876Z,28.93
2018-07-26T20:03:23.361Z,26.50
2018-07-26T20:06:00.635Z,25.37
2018-07-26T20:08:37.979Z,25.73
2018-07-26T20:11:15.515Z,24.30
2018-07-26T20:13:52.550Z,23.87
2018-07-26T20:16:29.477Z,23.13
2018-07-26T20:19:06.760Z,22.60
2018-07-26T20:21:43.927Z,20.87
2018-07-26T20:24:21.152Z,20.43
2018-07-26T20:26:58.662Z,19.70
2018-07-26T20:29:35.514Z,16.67
2018-07-26T20:32:11.869Z,16.70
2018-07-26T20:39:23.669Z,14.30
2018-07-26T20:42:00.847Z,13.93
2018-07-26T20:44:37.843Z,13.73
2018-07-26T20:47:15.397Z,13.27
2018-07-26T20:49:52.766Z,13.73
2018-07-26T20:52:29.836Z,14.70
2018-07-26T20:55:06.906Z,13.67
2018-07-26T20:57:43.755Z,15.07
2018-07-26T21:00:20.717Z,16.27
2018-07-26T21:02:58.266Z,15.17
2018-07-26T21:05:35.493Z,17.07
2018-07-26T21:08:13.227Z,12.90
2018-07-26T21:10:50.476Z,13.20
2018-07-26T21:13:28.727Z,12.50
2018-07-26T21:16:05.434Z,13.53
2018-07-26T21:18:42.954Z,11.07
2018-07-26T21:21:20.759Z,11.13
2018-07-26T21:23:57.964Z,11.00
2018-07-26T21:26:35.684Z,11.50
2018-07-26T21:29:12.650Z,11.13
2018-07-26T21:31:50.607Z,11.67
2018-07-26T21:34:27.929Z,14.50
2018-07-26T21:37:05.278Z,11.47
2018-07-26T21:39:43.354Z,11.73
2018-07-26T21:42:20.528Z,11.17
2018-07-26T21:44:57.603Z,11.90
2018-07-26T21:47:34.343Z,11.93
2018-07-26T21:50:10.874Z,12.03
2018-07-26T21:52:48.380Z,12.27
2018-07-26T21:55:26.430Z,12.30
2018-07-26T21:58:04.003Z,13.07
2018-07-26T22:00:45.113Z,11.50
2018-07-26T22:03:21.917Z,12.73
2018-07-26T22:05:58.846Z,11.80
2018-07-26T22:08:35.670Z,12.70
2018-07-26T22:11:12.761Z,12.73
2018-07-26T22:13:50.209Z,15.10
2018-07-26T22:16:27.072Z,14.17
2018-07-26T22:19:04.092Z,12.70
2018-07-26T22:21:41.283Z,13.20
2018-07-26T22:24:18.303Z,13.27
2018-07-26T22:26:54.964Z,14.13
2018-07-26T22:29:33.062Z,12.83
2018-07-26T22:32:09.713Z,13.73
2018-07-26T22:34:46.391Z,12.80
2018-07-26T22:37:23.601Z,13.40
2018-07-26T22:40:00.565Z,11.77
2018-07-26T22:42:38.098Z,12.30
2018-07-26T22:45:16.301Z,13.27
2018-07-26T22:47:53.071Z,13.23
2018-07-26T22:50:30.794Z,13.50
2018-07-26T22:53:08.081Z,13.13
2018-07-26T22:55:45.572Z,12.67
2018-07-26T22:58:22.797Z,13.00
2018-07-26T23:01:00.440Z,13.23
2018-07-26T23:03:38.239Z,12.13
2018-07-26T23:06:15.325Z,14.33
2018-07-26T23:08:52.918Z,11.33
2018-07-26T23:11:30.589Z,12.10
2018-07-26T23:14:08.136Z,12.30
2018-07-26T23:16:45.773Z,11.70
2018-07-26T23:19:23.589Z,12.10
2018-07-26T23:22:00.528Z,13.27
2018-07-26T23:24:37.337Z,11.23
2018-07-26T23:27:14.656Z,11.20
2018-07-26T23:29:51.926Z,11.87
2018-07-26T23:32:30.297Z,11.17
2018-07-26T23:35:08.500Z,11.17
2018-07-26T23:37:46.142Z,10.97
2018-07-26T23:40:23.882Z,11.37
2018-07-26T23:43:04.399Z,10.83
2018-07-26T23:45:41.216Z,11.77
2018-07-26T23:48:18.320Z,11.87
2018-07-26T23:50:55.866Z,12.33
2018-07-26T23:53:32.917Z,11.40
2018-07-26T23:56:09.947Z,11.60
2018-07-26T23:58:47.366Z,11.63
